sensor_id;sensor_type;location;lat;lon;timestamp;pressure;altitude;pressure_sealevel;temperature;humidity
54920;BME280;63804;53.120;8.764;2023-12-22T00:01:17;99378.38;;;6.25;72.41
54920;BME280;63804;53.120;8.764;2023-12-22T00:03:45;99370.16;;;6.19;72.65
54920;BME280;63804;53.120;8.764;2023-12-22T00:06:13;99360.69;;;6.05;72.61
54920;BME280;63804;53.120;8.764;2023-12-22T00:08:41;99370.50;;;6.25;73.08
54920;BME280;63804;53.120;8.764;2023-12-22T00:11:09;99377.44;;;6.26;72.90
54920;BME280;63804;53.120;8.764;2023-12-22T00:13:37;99374.81;;;6.15;73.54
54920;BME280;63804;53.120;8.764;2023-12-22T00:16:05;99381.50;;;6.08;73.89
54920;BME280;63804;53.120;8.764;2023-12-22T00:18:33;99386.75;;;6.08;74.01
54920;BME280;63804;53.120;8.764;2023-12-22T00:21:02;99383.06;;;6.10;74.17
54920;BME280;63804;53.120;8.764;2023-12-22T00:23:29;99393.44;;;6.12;73.73
54920;BME280;63804;53.120;8.764;2023-12-22T00:25:57;99398.22;;;6.07;73.73
54920;BME280;63804;53.120;8.764;2023-12-22T00:28:25;99384.72;;;6.00;73.96
54920;BME280;63804;53.120;8.764;2023-12-22T00:30:53;99384.72;;;6.12;73.54
54920;BME280;63804;53.120;8.764;2023-12-22T00:33:21;99382.69;;;6.15;73.18
54920;BME280;63804;53.120;8.764;2023-12-22T00:35:49;99390.56;;;6.15;71.93
54920;BME280;63804;53.120;8.764;2023-12-22T00:38:17;99385.91;;;6.19;71.76
54920;BME280;63804;53.120;8.764;2023-12-22T00:40:45;99385.56;;;6.23;71.53
54920;BME280;63804;53.120;8.764;2023-12-22T00:43:13;99385.09;;;6.18;70.47
54920;BME280;63804;53.120;8.764;2023-12-22T00:45:40;99395.09;;;6.13;70.22
54920;BME280;63804;53.120;8.764;2023-12-22T00:48:10;99390.44;;;6.17;70.62
54920;BME280;63804;53.120;8.764;2023-12-22T00:50:38;99401.69;;;6.19;70.56
54920;BME280;63804;53.120;8.764;2023-12-22T00:53:06;99403.97;;;6.23;70.69
54920;BME280;63804;53.120;8.764;2023-12-22T00:55:33;99406.22;;;6.17;70.97
54920;BME280;63804;53.120;8.764;2023-12-22T00:58:01;99405.75;;;6.12;71.06
54920;BME280;63804;53.120;8.764;2023-12-22T01:00:29;99420.31;;;6.16;71.73
54920;BME280;63804;53.120;8.764;2023-12-22T01:02:57;99420.69;;;6.11;71.21
54920;BME280;63804;53.120;8.764;2023-12-22T01:05:25;99424.72;;;6.04;71.66
54920;BME280;63804;53.120;8.764;2023-12-22T01:07:53;99432.13;;;6.10;71.82
54920;BME280;63804;53.120;8.764;2023-12-22T01:10:21;99430.59;;;6.07;72.17
54920;BME280;63804;53.120;8.764;2023-12-22T01:12:49;99424.94;;;6.01;72.86
54920;BME280;63804;53.120;8.764;2023-12-22T01:15:16;99417.66;;;5.93;72.95
54920;BME280;63804;53.120;8.764;2023-12-22T01:17:44;99410.94;;;5.89;73.24
54920;BME280;63804;53.120;8.764;2023-12-22T01:20:12;99434.03;;;5.97;73.62
54920;BME280;63804;53.120;8.764;2023-12-22T01:22:40;99417.44;;;5.96;73.43
54920;BME280;63804;53.120;8.764;2023-12-22T01:25:08;99422.56;;;5.98;73.10
54920;BME280;63804;53.120;8.764;2023-12-22T01:27:36;99450.88;;;6.05;73.23
54920;BME280;63804;53.120;8.764;2023-12-22T01:30:05;99432.25;;;6.08;72.42
54920;BME280;63804;53.120;8.764;2023-12-22T01:32:32;99457.34;;;6.13;72.92
54920;BME280;63804;53.120;8.764;2023-12-22T01:35:03;99440.72;;;6.01;72.57
54920;BME280;63804;53.120;8.764;2023-12-22T01:37:35;99451.84;;;6.04;72.32
54920;BME280;63804;53.120;8.764;2023-12-22T01:40:04;99450.16;;;6.03;72.51
54920;BME280;63804;53.120;8.764;2023-12-22T01:42:32;99430.69;;;6.06;72.46
54920;BME280;63804;53.120;8.764;2023-12-22T01:45:00;99456.72;;;5.98;72.52
54920;BME280;63804;53.120;8.764;2023-12-22T01:47:29;99456.72;;;5.98;72.68
54920;BME280;63804;53.120;8.764;2023-12-22T01:49:57;99474.28;;;5.97;72.07
54920;BME280;63804;53.120;8.764;2023-12-22T01:52:25;99458.72;;;5.94;71.19
54920;BME280;63804;53.120;8.764;2023-12-22T01:54:54;99490.41;;;6.04;71.04
54920;BME280;63804;53.120;8.764;2023-12-22T01:57:23;99463.75;;;5.97;70.75
54920;BME280;63804;53.120;8.764;2023-12-22T01:59:51;99492.09;;;6.05;70.61
54920;BME280;63804;53.120;8.764;2023-12-22T02:02:18;99476.94;;;6.08;70.68
54920;BME280;63804;53.120;8.764;2023-12-22T02:04:46;99472.84;;;6.04;71.08
54920;BME280;63804;53.120;8.764;2023-12-22T02:07:15;99465.78;;;5.94;71.30
54920;BME280;63804;53.120;8.764;2023-12-22T02:09:43;99459.88;;;5.90;71.58
54920;BME280;63804;53.120;8.764;2023-12-22T02:12:11;99458.78;;;5.81;71.03
54920;BME280;63804;53.120;8.764;2023-12-22T02:14:38;99451.94;;;5.68;71.17
54920;BME280;63804;53.120;8.764;2023-12-22T02:17:14;99455.03;;;5.61;71.24
54920;BME280;63804;53.120;8.764;2023-12-22T02:19:45;99446.47;;;5.71;70.46
54920;BME280;63804;53.120;8.764;2023-12-22T02:22:13;99468.25;;;5.84;69.88
54920;BME280;63804;53.120;8.764;2023-12-22T02:24:42;99465.13;;;5.90;70.24
54920;BME280;63804;53.120;8.764;2023-12-22T02:29:54;99479.69;;;5.83;73.24
54920;BME280;63804;53.120;8.764;2023-12-22T02:32:27;99425.94;;;5.76;72.40
54920;BME280;63804;53.120;8.764;2023-12-22T02:34:57;99437.34;;;5.63;72.58
54920;BME280;63804;53.120;8.764;2023-12-22T02:37:28;99453.94;;;5.64;72.59
54920;BME280;63804;53.120;8.764;2023-12-22T02:39:57;99469.09;;;5.60;73.43
54920;BME280;63804;53.120;8.764;2023-12-22T02:42:26;99472.91;;;5.56;73.67
54920;BME280;63804;53.120;8.764;2023-12-22T02:44:57;99474.59;;;5.57;74.31
54920;BME280;63804;53.120;8.764;2023-12-22T02:47:26;99461.78;;;5.53;74.71
54920;BME280;63804;53.120;8.764;2023-12-22T02:50:00;99453.81;;;5.54;74.62
54920;BME280;63804;53.120;8.764;2023-12-22T02:52:28;99471.44;;;5.52;74.28
54920;BME280;63804;53.120;8.764;2023-12-22T02:54:56;99458.22;;;5.54;74.19
54920;BME280;63804;53.120;8.764;2023-12-22T02:57:24;99458.31;;;5.52;74.21
54920;BME280;63804;53.120;8.764;2023-12-22T02:59:52;99452.63;;;5.58;74.15
54920;BME280;63804;53.120;8.764;2023-12-22T03:02:20;99457.31;;;5.66;73.31
54920;BME280;63804;53.120;8.764;2023-12-22T03:04:48;99469.38;;;5.69;73.08
54920;BME280;63804;53.120;8.764;2023-12-22T03:07:16;99463.63;;;5.63;73.44
54920;BME280;63804;53.120;8.764;2023-12-22T03:09:44;99464.34;;;5.66;72.94
54920;BME280;63804;53.120;8.764;2023-12-22T03:12:12;99454.47;;;5.69;72.91
54920;BME280;63804;53.120;8.764;2023-12-22T03:14:40;99443.69;;;5.72;72.83
54920;BME280;63804;53.120;8.764;2023-12-22T03:17:08;99430.13;;;5.78;72.38
54920;BME280;63804;53.120;8.764;2023-12-22T03:19:37;99445.59;;;5.94;71.63
54920;BME280;63804;53.120;8.764;2023-12-22T03:22:05;99442.75;;;5.97;70.76
54920;BME280;63804;53.120;8.764;2023-12-22T03:24:33;99444.09;;;6.03;70.45
54920;BME280;63804;53.120;8.764;2023-12-22T03:27:01;99450.53;;;6.10;70.27
54920;BME280;63804;53.120;8.764;2023-12-22T03:29:29;99438.88;;;5.90;71.51
54920;BME280;63804;53.120;8.764;2023-12-22T03:31:56;99436.81;;;5.82;72.40
54920;BME280;63804;53.120;8.764;2023-12-22T03:34:24;99439.44;;;5.82;72.52
54920;BME280;63804;53.120;8.764;2023-12-22T03:36:52;99443.13;;;5.80;72.21
54920;BME280;63804;53.120;8.764;2023-12-22T03:39:20;99465.69;;;5.71;72.78
54920;BME280;63804;53.120;8.764;2023-12-22T03:41:48;99462.91;;;5.61;73.11
54920;BME280;63804;53.120;8.764;2023-12-22T03:44:16;99465.28;;;5.65;73.23
54920;BME280;63804;53.120;8.764;2023-12-22T03:46:44;99457.06;;;5.58;72.94
54920;BME280;63804;53.120;8.764;2023-12-22T03:49:12;99461.34;;;5.59;73.17
54920;BME280;63804;53.120;8.764;2023-12-22T03:51:40;99450.63;;;5.62;72.94
54920;BME280;63804;53.120;8.764;2023-12-22T03:54:09;99435.56;;;5.64;72.61
54920;BME280;63804;53.120;8.764;2023-12-22T03:56:37;99427.94;;;5.61;72.69
54920;BME280;63804;53.120;8.764;2023-12-22T03:59:05;99433.91;;;5.63;72.18
54920;BME280;63804;53.120;8.764;2023-12-22T04:01:33;99427.47;;;5.67;72.01
54920;BME280;63804;53.120;8.764;2023-12-22T04:04:01;99437.41;;;5.75;71.73
54920;BME280;63804;53.120;8.764;2023-12-22T04:06:29;99430.72;;;5.82;71.27
54920;BME280;63804;53.120;8.764;2023-12-22T04:08:56;99430.50;;;5.85;71.05
54920;BME280;63804;53.120;8.764;2023-12-22T04:11:24;99429.59;;;5.97;70.36
54920;BME280;63804;53.120;8.764;2023-12-22T04:13:52;99416.25;;;6.00;70.67
54920;BME280;63804;53.120;8.764;2023-12-22T04:16:20;99440.13;;;5.97;70.65
54920;BME280;63804;53.120;8.764;2023-12-22T04:18:48;99437.38;;;6.10;70.57
54920;BME280;63804;53.120;8.764;2023-12-22T04:21:18;99465.44;;;6.09;70.25
54920;BME280;63804;53.120;8.764;2023-12-22T04:23:46;99479.69;;;6.07;71.37
54920;BME280;63804;53.120;8.764;2023-12-22T04:26:14;99460.16;;;5.98;72.03
54920;BME280;63804;53.120;8.764;2023-12-22T04:28:42;99452.66;;;5.94;72.40
54920;BME280;63804;53.120;8.764;2023-12-22T04:31:10;99471.41;;;6.00;71.98
54920;BME280;63804;53.120;8.764;2023-12-22T04:33:37;99466.25;;;5.99;72.14
54920;BME280;63804;53.120;8.764;2023-12-22T04:36:05;99478.19;;;5.92;72.55
54920;BME280;63804;53.120;8.764;2023-12-22T04:38:34;99465.38;;;5.87;73.44
54920;BME280;63804;53.120;8.764;2023-12-22T04:41:02;99494.81;;;5.92;74.24
54920;BME280;63804;53.120;8.764;2023-12-22T04:43:30;99465.00;;;5.80;74.68
54920;BME280;63804;53.120;8.764;2023-12-22T04:45:58;99476.78;;;5.75;74.31
54920;BME280;63804;53.120;8.764;2023-12-22T04:48:26;99447.63;;;5.67;74.41
54920;BME280;63804;53.120;8.764;2023-12-22T04:50:54;99472.34;;;5.64;74.78
54920;BME280;63804;53.120;8.764;2023-12-22T04:53:21;99472.38;;;5.75;74.64
54920;BME280;63804;53.120;8.764;2023-12-22T04:55:49;99452.19;;;5.76;74.23
54920;BME280;63804;53.120;8.764;2023-12-22T04:58:17;99450.75;;;5.72;74.46
54920;BME280;63804;53.120;8.764;2023-12-22T05:00:45;99463.78;;;5.73;74.46
54920;BME280;63804;53.120;8.764;2023-12-22T05:03:13;99455.56;;;5.78;74.24
54920;BME280;63804;53.120;8.764;2023-12-22T05:05:41;99464.72;;;5.96;73.03
54920;BME280;63804;53.120;8.764;2023-12-22T05:08:09;99488.47;;;5.95;72.90
54920;BME280;63804;53.120;8.764;2023-12-22T05:10:37;99472.00;;;5.69;73.23
54920;BME280;63804;53.120;8.764;2023-12-22T05:13:04;99499.78;;;5.60;74.25
54920;BME280;63804;53.120;8.764;2023-12-22T05:15:32;99471.41;;;5.65;73.81
54920;BME280;63804;53.120;8.764;2023-12-22T05:18:00;99470.84;;;5.73;72.95
54920;BME280;63804;53.120;8.764;2023-12-22T05:20:28;99487.44;;;5.73;72.30
54920;BME280;63804;53.120;8.764;2023-12-22T05:22:56;99500.00;;;5.81;71.75
54920;BME280;63804;53.120;8.764;2023-12-22T05:25:24;99515.22;;;5.76;70.76
54920;BME280;63804;53.120;8.764;2023-12-22T05:27:52;99482.03;;;5.75;70.05
54920;BME280;63804;53.120;8.764;2023-12-22T05:30:20;99493.16;;;5.78;70.24
54920;BME280;63804;53.120;8.764;2023-12-22T05:32:48;99474.06;;;5.76;69.36
54920;BME280;63804;53.120;8.764;2023-12-22T05:35:16;99498.41;;;5.78;70.03
54920;BME280;63804;53.120;8.764;2023-12-22T05:37:44;99485.31;;;5.90;69.49
54920;BME280;63804;53.120;8.764;2023-12-22T05:40:12;99489.56;;;5.92;69.95
54920;BME280;63804;53.120;8.764;2023-12-22T05:42:40;99500.06;;;5.92;69.85
54920;BME280;63804;53.120;8.764;2023-12-22T05:45:08;99476.41;;;5.92;70.52
54920;BME280;63804;53.120;8.764;2023-12-22T05:47:38;99479.03;;;5.92;70.63
54920;BME280;63804;53.120;8.764;2023-12-22T05:50:07;99494.50;;;5.84;70.40
54920;BME280;63804;53.120;8.764;2023-12-22T05:52:35;99507.34;;;5.76;70.64
54920;BME280;63804;53.120;8.764;2023-12-22T05:55:04;99519.78;;;5.74;70.59
54920;BME280;63804;53.120;8.764;2023-12-22T05:57:36;99526.66;;;5.63;71.42
54920;BME280;63804;53.120;8.764;2023-12-22T06:00:05;99534.31;;;5.67;71.34
54920;BME280;63804;53.120;8.764;2023-12-22T06:02:35;99550.91;;;5.67;70.61
54920;BME280;63804;53.120;8.764;2023-12-22T06:05:03;99538.50;;;5.69;70.30
54920;BME280;63804;53.120;8.764;2023-12-22T06:07:31;99535.19;;;5.78;70.50
54920;BME280;63804;53.120;8.764;2023-12-22T06:09:59;99553.47;;;5.80;70.85
54920;BME280;63804;53.120;8.764;2023-12-22T06:12:28;99578.66;;;5.82;71.24
54920;BME280;63804;53.120;8.764;2023-12-22T06:14:55;99569.91;;;5.71;71.61
54920;BME280;63804;53.120;8.764;2023-12-22T06:17:24;99582.34;;;5.56;73.13
54920;BME280;63804;53.120;8.764;2023-12-22T06:19:51;99557.59;;;5.47;73.31
54920;BME280;63804;53.120;8.764;2023-12-22T06:22:19;99613.16;;;5.41;73.08
54920;BME280;63804;53.120;8.764;2023-12-22T06:24:48;99581.91;;;5.38;73.46
54920;BME280;63804;53.120;8.764;2023-12-22T06:27:15;99591.78;;;5.34;73.64
54920;BME280;63804;53.120;8.764;2023-12-22T06:29:44;99576.22;;;5.31;73.93
54920;BME280;63804;53.120;8.764;2023-12-22T06:32:12;99591.03;;;5.32;73.93
54920;BME280;63804;53.120;8.764;2023-12-22T06:34:40;99597.41;;;5.41;74.44
54920;BME280;63804;53.120;8.764;2023-12-22T06:37:07;99571.06;;;5.30;75.24
54920;BME280;63804;53.120;8.764;2023-12-22T06:39:35;99589.78;;;5.38;75.00
54920;BME280;63804;53.120;8.764;2023-12-22T06:42:03;99574.22;;;5.35;74.90
54920;BME280;63804;53.120;8.764;2023-12-22T06:44:33;99579.28;;;5.25;74.95
54920;BME280;63804;53.120;8.764;2023-12-22T06:47:00;99587.28;;;5.24;74.67
54920;BME280;63804;53.120;8.764;2023-12-22T06:49:29;99590.63;;;5.26;74.55
54920;BME280;63804;53.120;8.764;2023-12-22T06:51:57;99600.81;;;5.30;74.75
54920;BME280;63804;53.120;8.764;2023-12-22T06:54:24;99598.69;;;5.35;75.07
54920;BME280;63804;53.120;8.764;2023-12-22T06:56:52;99609.81;;;5.39;74.81
54920;BME280;63804;53.120;8.764;2023-12-22T06:59:20;99620.81;;;5.44;74.85
54920;BME280;63804;53.120;8.764;2023-12-22T07:01:50;99636.25;;;5.49;75.50
54920;BME280;63804;53.120;8.764;2023-12-22T07:04:59;99631.31;;;5.44;76.59
54920;BME280;63804;53.120;8.764;2023-12-22T07:07:36;99618.31;;;5.43;77.05
54920;BME280;63804;53.120;8.764;2023-12-22T07:10:04;99621.03;;;5.41;77.34
54920;BME280;63804;53.120;8.764;2023-12-22T07:12:32;99635.47;;;5.23;77.81
54920;BME280;63804;53.120;8.764;2023-12-22T07:15:00;99636.84;;;5.16;78.24
54920;BME280;63804;53.120;8.764;2023-12-22T07:17:29;99646.06;;;5.21;77.78
54920;BME280;63804;53.120;8.764;2023-12-22T07:19:57;99643.31;;;5.35;77.23
54920;BME280;63804;53.120;8.764;2023-12-22T07:22:26;99662.09;;;5.42;76.96
54920;BME280;63804;53.120;8.764;2023-12-22T07:24:54;99671.84;;;5.53;76.81
54920;BME280;63804;53.120;8.764;2023-12-22T07:27:24;99660.81;;;5.48;76.51
54920;BME280;63804;53.120;8.764;2023-12-22T07:29:54;99674.88;;;5.59;76.43
54920;BME280;63804;53.120;8.764;2023-12-22T07:32:22;99673.72;;;5.63;76.64
54920;BME280;63804;53.120;8.764;2023-12-22T07:34:50;99680.63;;;5.65;76.52
54920;BME280;63804;53.120;8.764;2023-12-22T07:37:18;99683.25;;;5.65;76.17
54920;BME280;63804;53.120;8.764;2023-12-22T07:39:47;99673.72;;;5.63;76.03
54920;BME280;63804;53.120;8.764;2023-12-22T07:42:15;99670.94;;;5.78;75.82
54920;BME280;63804;53.120;8.764;2023-12-22T07:44:43;99667.91;;;5.84;75.68
54920;BME280;63804;53.120;8.764;2023-12-22T07:47:11;99690.47;;;5.86;74.72
54920;BME280;63804;53.120;8.764;2023-12-22T07:49:39;99662.72;;;5.95;75.14
54920;BME280;63804;53.120;8.764;2023-12-22T07:52:07;99656.31;;;5.99;74.30
54920;BME280;63804;53.120;8.764;2023-12-22T07:54:36;99662.50;;;5.98;72.83
54920;BME280;63804;53.120;8.764;2023-12-22T07:57:04;99655.69;;;5.96;72.77
54920;BME280;63804;53.120;8.764;2023-12-22T07:59:32;99652.19;;;5.95;72.63
54920;BME280;63804;53.120;8.764;2023-12-22T08:02:00;99662.84;;;5.94;72.99
54920;BME280;63804;53.120;8.764;2023-12-22T08:04:29;99673.97;;;5.97;72.75
54920;BME280;63804;53.120;8.764;2023-12-22T08:06:57;99692.97;;;6.01;72.34
54920;BME280;63804;53.120;8.764;2023-12-22T08:09:25;99690.97;;;6.04;72.30
54920;BME280;63804;53.120;8.764;2023-12-22T08:11:53;99698.03;;;6.04;71.29
54920;BME280;63804;53.120;8.764;2023-12-22T08:14:21;99701.56;;;6.16;70.77
54920;BME280;63804;53.120;8.764;2023-12-22T08:16:50;99685.72;;;6.28;70.35
54920;BME280;63804;53.120;8.764;2023-12-22T08:19:18;99697.06;;;6.29;70.36
54920;BME280;63804;53.120;8.764;2023-12-22T08:21:47;99690.63;;;6.33;69.48
54920;BME280;63804;53.120;8.764;2023-12-22T08:24:18;99708.72;;;6.38;68.72
54920;BME280;63804;53.120;8.764;2023-12-22T08:26:50;99706.41;;;6.33;69.09
54920;BME280;63804;53.120;8.764;2023-12-22T08:29:18;99722.09;;;6.34;68.67
54920;BME280;63804;53.120;8.764;2023-12-22T08:31:49;99706.84;;;6.51;68.13
54920;BME280;63804;53.120;8.764;2023-12-22T08:34:17;99717.94;;;6.43;70.38
54920;BME280;63804;53.120;8.764;2023-12-22T08:36:45;99726.00;;;6.29;72.89
54920;BME280;63804;53.120;8.764;2023-12-22T08:39:13;99716.28;;;6.18;73.71
54920;BME280;63804;53.120;8.764;2023-12-22T08:41:42;99710.41;;;6.39;73.33
54920;BME280;63804;53.120;8.764;2023-12-22T08:44:10;99701.34;;;6.19;73.92
54920;BME280;63804;53.120;8.764;2023-12-22T08:46:39;99706.41;;;6.09;74.78
54920;BME280;63804;53.120;8.764;2023-12-22T08:49:07;99716.91;;;6.09;74.26
54920;BME280;63804;53.120;8.764;2023-12-22T08:51:35;99712.06;;;6.16;74.17
54920;BME280;63804;53.120;8.764;2023-12-22T08:54:03;99718.94;;;6.29;74.17
54920;BME280;63804;53.120;8.764;2023-12-22T08:56:34;99722.19;;;6.33;73.98
54920;BME280;63804;53.120;8.764;2023-12-22T08:59:03;99727.75;;;6.41;73.46
54920;BME280;63804;53.120;8.764;2023-12-22T09:01:31;99740.22;;;6.50;72.15
54920;BME280;63804;53.120;8.764;2023-12-22T09:03:59;99749.06;;;6.49;71.96
54920;BME280;63804;53.120;8.764;2023-12-22T09:06:27;99752.31;;;6.53;72.41
54920;BME280;63804;53.120;8.764;2023-12-22T09:08:55;99744.28;;;6.54;72.14
54920;BME280;63804;53.120;8.764;2023-12-22T09:11:23;99756.69;;;6.52;72.47
54920;BME280;63804;53.120;8.764;2023-12-22T09:13:51;99759.06;;;6.44;72.25
54920;BME280;63804;53.120;8.764;2023-12-22T09:16:22;99747.91;;;6.41;70.86
54920;BME280;63804;53.120;8.764;2023-12-22T09:18:51;99740.03;;;6.41;71.00
54920;BME280;63804;53.120;8.764;2023-12-22T09:21:19;99742.72;;;6.28;70.49
54920;BME280;63804;53.120;8.764;2023-12-22T09:23:47;99762.69;;;6.30;70.44
54920;BME280;63804;53.120;8.764;2023-12-22T09:26:15;99764.72;;;6.27;70.47
54920;BME280;63804;53.120;8.764;2023-12-22T09:28:44;99748.53;;;6.20;70.42
54920;BME280;63804;53.120;8.764;2023-12-22T09:31:12;99767.97;;;6.30;70.81
54920;BME280;63804;53.120;8.764;2023-12-22T09:33:41;99776.19;;;6.26;70.67
54920;BME280;63804;53.120;8.764;2023-12-22T09:36:09;99779.03;;;6.23;70.96
54920;BME280;63804;53.120;8.764;2023-12-22T09:38:38;99787.53;;;6.26;71.00
54920;BME280;63804;53.120;8.764;2023-12-22T09:41:06;99765.66;;;6.26;71.08
54920;BME280;63804;53.120;8.764;2023-12-22T09:43:35;99778.69;;;6.27;71.70
54920;BME280;63804;53.120;8.764;2023-12-22T09:46:07;99776.19;;;6.26;71.77
54920;BME280;63804;53.120;8.764;2023-12-22T09:48:36;99769.97;;;6.27;72.20
54920;BME280;63804;53.120;8.764;2023-12-22T09:51:07;99773.44;;;6.27;72.26
54920;BME280;63804;53.120;8.764;2023-12-22T09:53:37;99765.88;;;6.23;72.75
54920;BME280;63804;53.120;8.764;2023-12-22T09:56:06;99764.13;;;6.10;73.26
54920;BME280;63804;53.120;8.764;2023-12-22T09:58:36;99765.25;;;6.19;73.18
54920;BME280;63804;53.120;8.764;2023-12-22T10:01:04;99788.16;;;6.17;73.63
54920;BME280;63804;53.120;8.764;2023-12-22T10:03:36;99775.84;;;6.18;73.85
54920;BME280;63804;53.120;8.764;2023-12-22T10:06:04;99773.34;;;6.16;74.51
54920;BME280;63804;53.120;8.764;2023-12-22T10:08:34;99779.22;;;6.20;74.56
54920;BME280;63804;53.120;8.764;2023-12-22T10:11:03;99791.53;;;6.19;75.22
54920;BME280;63804;53.120;8.764;2023-12-22T10:13:33;99786.28;;;6.19;75.78
54920;BME280;63804;53.120;8.764;2023-12-22T10:16:05;99798.19;;;6.12;76.39
54920;BME280;63804;53.120;8.764;2023-12-22T10:18:34;99806.41;;;6.07;76.85
54920;BME280;63804;53.120;8.764;2023-12-22T10:21:02;99812.91;;;6.02;77.22
54920;BME280;63804;53.120;8.764;2023-12-22T10:23:30;99804.72;;;5.94;77.62
54920;BME280;63804;53.120;8.764;2023-12-22T10:25:58;99797.84;;;5.91;77.77
54920;BME280;63804;53.120;8.764;2023-12-22T10:28:29;99804.50;;;5.97;77.79
54920;BME280;63804;53.120;8.764;2023-12-22T10:30:57;99796.84;;;5.81;78.12
54920;BME280;63804;53.120;8.764;2023-12-22T10:33:32;99794.09;;;5.82;78.29
54920;BME280;63804;53.120;8.764;2023-12-22T10:36:02;99795.47;;;5.88;78.32
54920;BME280;63804;53.120;8.764;2023-12-22T10:38:33;99802.59;;;5.99;77.76
54920;BME280;63804;53.120;8.764;2023-12-22T10:41:03;99799.34;;;5.95;77.88
54920;BME280;63804;53.120;8.764;2023-12-22T10:43:40;99804.59;;;5.95;77.98
54920;BME280;63804;53.120;8.764;2023-12-22T10:46:09;99802.28;;;5.91;78.51
54920;BME280;63804;53.120;8.764;2023-12-22T10:48:40;99791.03;;;6.01;78.37
54920;BME280;63804;53.120;8.764;2023-12-22T10:51:09;99784.97;;;6.01;78.13
54920;BME280;63804;53.120;8.764;2023-12-22T10:53:41;99781.91;;;6.07;78.10
54920;BME280;63804;53.120;8.764;2023-12-22T10:56:10;99783.13;;;6.14;77.99
54920;BME280;63804;53.120;8.764;2023-12-22T10:58:39;99772.72;;;6.13;78.05
54920;BME280;63804;53.120;8.764;2023-12-22T11:01:07;99771.00;;;6.24;77.66
54920;BME280;63804;53.120;8.764;2023-12-22T11:03:39;99759.44;;;6.27;77.75
54920;BME280;63804;53.120;8.764;2023-12-22T11:06:10;99760.06;;;6.30;77.91
54920;BME280;63804;53.120;8.764;2023-12-22T11:08:40;99761.19;;;6.39;77.84
54920;BME280;63804;53.120;8.764;2023-12-22T11:13:53;99758.91;;;6.58;77.46
54920;BME280;63804;53.120;8.764;2023-12-22T11:16:23;99761.59;;;6.70;76.99
54920;BME280;63804;53.120;8.764;2023-12-22T11:18:53;99765.50;;;6.64;77.57
54920;BME280;63804;53.120;8.764;2023-12-22T11:21:25;99759.69;;;6.72;77.65
54920;BME280;63804;53.120;8.764;2023-12-22T11:23:54;99763.03;;;6.74;77.57
54920;BME280;63804;53.120;8.764;2023-12-22T11:26:23;99761.97;;;6.76;77.82
54920;BME280;63804;53.120;8.764;2023-12-22T11:28:52;99748.00;;;6.76;77.85
54920;BME280;63804;53.120;8.764;2023-12-22T11:31:20;99749.66;;;6.77;78.08
54920;BME280;63804;53.120;8.764;2023-12-22T11:33:50;99740.34;;;6.84;77.83
54920;BME280;63804;53.120;8.764;2023-12-22T11:36:31;99745.50;;;6.86;77.86
54920;BME280;63804;53.120;8.764;2023-12-22T11:39:02;99727.94;;;6.97;77.58
54920;BME280;63804;53.120;8.764;2023-12-22T11:41:33;99727.00;;;6.98;77.69
54920;BME280;63804;53.120;8.764;2023-12-22T11:44:05;99724.13;;;7.01;77.71
54920;BME280;63804;53.120;8.764;2023-12-22T11:46:33;99728.31;;;7.04;78.02
54920;BME280;63804;53.120;8.764;2023-12-22T11:49:03;99724.84;;;7.03;78.19
54920;BME280;63804;53.120;8.764;2023-12-22T11:51:32;99727.25;;;7.06;78.16
54920;BME280;63804;53.120;8.764;2023-12-22T11:54:04;99716.34;;;7.00;78.19
54920;BME280;63804;53.120;8.764;2023-12-22T11:56:51;99722.69;;;6.97;77.88
54920;BME280;63804;53.120;8.764;2023-12-22T11:59:20;99718.16;;;6.99;78.05
54920;BME280;63804;53.120;8.764;2023-12-22T12:01:54;99715.28;;;7.02;77.85
54920;BME280;63804;53.120;8.764;2023-12-22T12:04:23;99721.50;;;7.01;78.00
54920;BME280;63804;53.120;8.764;2023-12-22T12:06:51;99720.59;;;7.14;77.50
54920;BME280;63804;53.120;8.764;2023-12-22T12:09:45;99718.28;;;7.20;77.39
54920;BME280;63804;53.120;8.764;2023-12-22T12:12:14;99708.59;;;7.09;77.76
54920;BME280;63804;53.120;8.764;2023-12-22T12:14:43;99700.09;;;7.17;77.59
54920;BME280;63804;53.120;8.764;2023-12-22T12:17:15;99705.50;;;7.16;77.20
54920;BME280;63804;53.120;8.764;2023-12-22T12:19:47;99694.50;;;7.22;76.78
54920;BME280;63804;53.120;8.764;2023-12-22T12:22:15;99687.06;;;7.27;76.66
54920;BME280;63804;53.120;8.764;2023-12-22T12:24:44;99685.75;;;7.32;76.40
54920;BME280;63804;53.120;8.764;2023-12-22T12:27:17;99682.78;;;7.37;76.20
54920;BME280;63804;53.120;8.764;2023-12-22T12:29:46;99683.13;;;7.32;76.25
54920;BME280;63804;53.120;8.764;2023-12-22T12:32:14;99694.25;;;7.36;75.78
54920;BME280;63804;53.120;8.764;2023-12-22T12:34:43;99687.91;;;7.39;75.59
54920;BME280;63804;53.120;8.764;2023-12-22T12:37:11;99685.28;;;7.39;75.63
54920;BME280;63804;53.120;8.764;2023-12-22T12:39:41;99698.00;;;7.45;75.62
54920;BME280;63804;53.120;8.764;2023-12-22T12:42:11;99693.41;;;7.36;75.51
54920;BME280;63804;53.120;8.764;2023-12-22T12:44:44;99690.78;;;7.36;75.50
54920;BME280;63804;53.120;8.764;2023-12-22T12:47:14;99692.97;;;7.42;75.59
54920;BME280;63804;53.120;8.764;2023-12-22T12:49:42;99699.88;;;7.31;75.85
54920;BME280;63804;53.120;8.764;2023-12-22T12:52:14;99684.81;;;7.33;75.75
54920;BME280;63804;53.120;8.764;2023-12-22T12:54:42;99683.13;;;7.32;75.66
54920;BME280;63804;53.120;8.764;2023-12-22T12:57:15;99686.72;;;7.31;75.96
54920;BME280;63804;53.120;8.764;2023-12-22T12:59:50;99677.50;;;7.26;75.86
54920;BME280;63804;53.120;8.764;2023-12-22T13:02:19;99684.00;;;7.44;75.82
54920;BME280;63804;53.120;8.764;2023-12-22T13:04:48;99685.88;;;7.42;75.80
54920;BME280;63804;53.120;8.764;2023-12-22T13:07:34;99668.88;;;7.46;75.10
54920;BME280;63804;53.120;8.764;2023-12-22T13:10:03;99666.50;;;7.43;75.44
54920;BME280;63804;53.120;8.764;2023-12-22T13:12:32;99655.03;;;7.44;75.47
54920;BME280;63804;53.120;8.764;2023-12-22T13:15:04;99648.53;;;7.48;75.33
54920;BME280;63804;53.120;8.764;2023-12-22T13:17:32;99648.19;;;7.53;74.88
54920;BME280;63804;53.120;8.764;2023-12-22T13:20:00;99649.97;;;7.52;74.89
54920;BME280;63804;53.120;8.764;2023-12-22T13:22:29;99644.81;;;7.51;75.28
54920;BME280;63804;53.120;8.764;2023-12-22T13:24:57;99642.91;;;7.53;75.24